sensor_id;sensor_type;location;lat;lon;timestamp;P1;durP1;ratioP1;P2;durP2;ratioP2
63975;SDS011;50167;47.958;21.780;2023-05-10T00:00:06;4.80;;;3.70;;
63975;SDS011;50167;47.958;21.780;2023-05-10T00:02:34;4.23;;;3.33;;
63975;SDS011;50167;47.958;21.780;2023-05-10T00:05:01;7.07;;;3.03;;
63975;SDS011;50167;47.958;21.780;2023-05-10T00:07:27;5.20;;;3.27;;
63975;SDS011;50167;47.958;21.780;2023-05-10T00:09:54;5.33;;;3.07;;
63975;SDS011;50167;47.958;21.780;2023-05-10T00:12:20;5.47;;;3.87;;
63975;SDS011;50167;47.958;21.780;2023-05-10T00:14:46;4.53;;;3.17;;
63975;SDS011;50167;47.958;21.780;2023-05-10T00:17:13;5.03;;;3.53;;
63975;SDS011;50167;47.958;21.780;2023-05-10T00:19:39;4.27;;;3.00;;
63975;SDS011;50167;47.958;21.780;2023-05-10T00:22:06;7.73;;;3.13;;
63975;SDS011;50167;47.958;21.780;2023-05-10T00:24:32;5.20;;;3.47;;
63975;SDS011;50167;47.958;21.780;2023-05-10T00:26:58;5.97;;;3.20;;
63975;SDS011;50167;47.958;21.780;2023-05-10T00:29:24;11.73;;;3.90;;
63975;SDS011;50167;47.958;21.780;2023-05-10T00:31:50;8.47;;;3.67;;
63975;SDS011;50167;47.958;21.780;2023-05-10T00:34:16;4.87;;;3.67;;
63975;SDS011;50167;47.958;21.780;2023-05-10T00:36:42;6.00;;;3.97;;
63975;SDS011;50167;47.958;21.780;2023-05-10T00:39:08;8.80;;;3.77;;
63975;SDS011;50167;47.958;21.780;2023-05-10T00:41:35;5.57;;;3.67;;
63975;SDS011;50167;47.958;21.780;2023-05-10T00:44:01;4.53;;;3.17;;
63975;SDS011;50167;47.958;21.780;2023-05-10T00:46:27;6.37;;;3.83;;
63975;SDS011;50167;47.958;21.780;2023-05-10T00:48:54;6.30;;;3.90;;
63975;SDS011;50167;47.958;21.780;2023-05-10T00:51:21;9.33;;;3.53;;
63975;SDS011;50167;47.958;21.780;2023-05-10T00:53:47;4.67;;;3.17;;
63975;SDS011;50167;47.958;21.780;2023-05-10T00:56:15;4.20;;;2.77;;
63975;SDS011;50167;47.958;21.780;2023-05-10T00:58:42;4.80;;;3.33;;
63975;SDS011;50167;47.958;21.780;2023-05-10T01:01:10;4.40;;;2.80;;
63975;SDS011;50167;47.958;21.780;2023-05-10T01:03:37;4.87;;;3.17;;
63975;SDS011;50167;47.958;21.780;2023-05-10T01:06:05;3.87;;;2.60;;
63975;SDS011;50167;47.958;21.780;2023-05-10T01:08:32;5.83;;;3.23;;
63975;SDS011;50167;47.958;21.780;2023-05-10T01:10:59;9.37;;;3.40;;
63975;SDS011;50167;47.958;21.780;2023-05-10T01:13:30;8.27;;;2.90;;
63975;SDS011;50167;47.958;21.780;2023-05-10T01:15:58;9.73;;;3.33;;
63975;SDS011;50167;47.958;21.780;2023-05-10T01:18:27;6.87;;;3.30;;
63975;SDS011;50167;47.958;21.780;2023-05-10T01:21:14;6.23;;;3.63;;
63975;SDS011;50167;47.958;21.780;2023-05-10T01:29:47;6.70;;;4.13;;
63975;SDS011;50167;47.958;21.780;2023-05-10T01:32:48;10.17;;;3.53;;
63975;SDS011;50167;47.958;21.780;2023-05-10T01:35:18;6.80;;;3.80;;
63975;SDS011;50167;47.958;21.780;2023-05-10T01:40:48;5.00;;;3.70;;
63975;SDS011;50167;47.958;21.780;2023-05-10T01:43:24;8.03;;;3.07;;
63975;SDS011;50167;47.958;21.780;2023-05-10T01:48:33;5.10;;;3.33;;
63975;SDS011;50167;47.958;21.780;2023-05-10T01:50:59;9.13;;;4.47;;
63975;SDS011;50167;47.958;21.780;2023-05-10T01:53:27;7.10;;;3.70;;
63975;SDS011;50167;47.958;21.780;2023-05-10T01:55:54;5.67;;;3.43;;
63975;SDS011;50167;47.958;21.780;2023-05-10T01:58:28;5.30;;;4.00;;
63975;SDS011;50167;47.958;21.780;2023-05-10T02:00:59;5.07;;;3.50;;
63975;SDS011;50167;47.958;21.780;2023-05-10T02:03:28;8.87;;;3.80;;
63975;SDS011;50167;47.958;21.780;2023-05-10T02:05:56;6.07;;;4.23;;
63975;SDS011;50167;47.958;21.780;2023-05-10T02:08:24;4.77;;;3.63;;
63975;SDS011;50167;47.958;21.780;2023-05-10T02:10:52;11.00;;;4.13;;
63975;SDS011;50167;47.958;21.780;2023-05-10T02:13:21;6.23;;;3.63;;
63975;SDS011;50167;47.958;21.780;2023-05-10T02:15:51;7.20;;;4.00;;
63975;SDS011;50167;47.958;21.780;2023-05-10T02:18:20;6.93;;;4.07;;
63975;SDS011;50167;47.958;21.780;2023-05-10T02:20:49;8.77;;;3.87;;
63975;SDS011;50167;47.958;21.780;2023-05-10T02:23:17;6.07;;;4.20;;
63975;SDS011;50167;47.958;21.780;2023-05-10T02:25:45;6.83;;;3.60;;
63975;SDS011;50167;47.958;21.780;2023-05-10T02:28:14;8.67;;;3.90;;
63975;SDS011;50167;47.958;21.780;2023-05-10T02:30:42;5.67;;;3.63;;
63975;SDS011;50167;47.958;21.780;2023-05-10T02:33:09;8.40;;;4.27;;
63975;SDS011;50167;47.958;21.780;2023-05-10T02:35:37;7.57;;;4.23;;
63975;SDS011;50167;47.958;21.780;2023-05-10T02:38:04;5.93;;;3.90;;
63975;SDS011;50167;47.958;21.780;2023-05-10T02:40:32;6.57;;;3.77;;
63975;SDS011;50167;47.958;21.780;2023-05-10T02:42:59;8.30;;;4.60;;
63975;SDS011;50167;47.958;21.780;2023-05-10T02:45:29;5.27;;;3.80;;
63975;SDS011;50167;47.958;21.780;2023-05-10T02:47:58;8.37;;;3.80;;
63975;SDS011;50167;47.958;21.780;2023-05-10T02:50:25;10.10;;;4.17;;
63975;SDS011;50167;47.958;21.780;2023-05-10T02:52:54;6.70;;;3.90;;
63975;SDS011;50167;47.958;21.780;2023-05-10T02:55:26;6.13;;;3.37;;
63975;SDS011;50167;47.958;21.780;2023-05-10T02:58:01;11.37;;;3.87;;
63975;SDS011;50167;47.958;21.780;2023-05-10T03:00:28;5.93;;;3.43;;
63975;SDS011;50167;47.958;21.780;2023-05-10T03:02:55;4.87;;;2.80;;
63975;SDS011;50167;47.958;21.780;2023-05-10T03:05:21;8.93;;;3.33;;
63975;SDS011;50167;47.958;21.780;2023-05-10T03:07:47;5.40;;;3.60;;
63975;SDS011;50167;47.958;21.780;2023-05-10T03:10:14;4.87;;;3.27;;
63975;SDS011;50167;47.958;21.780;2023-05-10T03:15:37;7.20;;;4.10;;
63975;SDS011;50167;47.958;21.780;2023-05-10T03:18:29;7.87;;;4.80;;
63975;SDS011;50167;47.958;21.780;2023-05-10T03:21:10;4.87;;;3.87;;
63975;SDS011;50167;47.958;21.780;2023-05-10T03:23:43;8.10;;;4.35;;
63975;SDS011;50167;47.958;21.780;2023-05-10T03:26:26;7.93;;;4.47;;
63975;SDS011;50167;47.958;21.780;2023-05-10T03:28:54;5.47;;;3.90;;
63975;SDS011;50167;47.958;21.780;2023-05-10T03:31:21;10.83;;;4.37;;
63975;SDS011;50167;47.958;21.780;2023-05-10T03:33:48;7.10;;;3.77;;
63975;SDS011;50167;47.958;21.780;2023-05-10T03:36:15;6.77;;;3.90;;
63975;SDS011;50167;47.958;21.780;2023-05-10T03:38:42;10.43;;;4.60;;
63975;SDS011;50167;47.958;21.780;2023-05-10T03:41:08;7.10;;;3.87;;
63975;SDS011;50167;47.958;21.780;2023-05-10T03:43:34;9.07;;;4.73;;
63975;SDS011;50167;47.958;21.780;2023-05-10T03:46:06;8.77;;;4.20;;
63975;SDS011;50167;47.958;21.780;2023-05-10T03:48:31;7.60;;;3.87;;
63975;SDS011;50167;47.958;21.780;2023-05-10T03:50:58;6.43;;;3.90;;
63975;SDS011;50167;47.958;21.780;2023-05-10T03:53:25;4.43;;;3.13;;
63975;SDS011;50167;47.958;21.780;2023-05-10T03:55:52;7.10;;;4.27;;
63975;SDS011;50167;47.958;21.780;2023-05-10T03:58:18;8.80;;;4.13;;
63975;SDS011;50167;47.958;21.780;2023-05-10T04:00:44;5.87;;;4.10;;
63975;SDS011;50167;47.958;21.780;2023-05-10T04:03:11;5.47;;;3.43;;
63975;SDS011;50167;47.958;21.780;2023-05-10T04:05:37;6.20;;;3.67;;
63975;SDS011;50167;47.958;21.780;2023-05-10T04:08:04;5.57;;;3.67;;
63975;SDS011;50167;47.958;21.780;2023-05-10T04:10:30;7.47;;;3.60;;
63975;SDS011;50167;47.958;21.780;2023-05-10T04:12:56;7.23;;;3.70;;
63975;SDS011;50167;47.958;21.780;2023-05-10T04:15:23;6.13;;;3.57;;
63975;SDS011;50167;47.958;21.780;2023-05-10T04:17:49;4.83;;;3.60;;
63975;SDS011;50167;47.958;21.780;2023-05-10T04:20:16;7.07;;;3.77;;
63975;SDS011;50167;47.958;21.780;2023-05-10T04:22:42;4.00;;;3.10;;
63975;SDS011;50167;47.958;21.780;2023-05-10T04:25:09;5.63;;;3.63;;
63975;SDS011;50167;47.958;21.780;2023-05-10T04:27:35;5.07;;;3.23;;
63975;SDS011;50167;47.958;21.780;2023-05-10T04:30:02;4.00;;;3.13;;
63975;SDS011;50167;47.958;21.780;2023-05-10T04:32:29;4.20;;;3.17;;
63975;SDS011;50167;47.958;21.780;2023-05-10T04:34:55;14.53;;;4.73;;
63975;SDS011;50167;47.958;21.780;2023-05-10T04:37:21;4.43;;;2.93;;
63975;SDS011;50167;47.958;21.780;2023-05-10T04:39:48;7.03;;;3.40;;
63975;SDS011;50167;47.958;21.780;2023-05-10T04:42:14;9.37;;;4.47;;
63975;SDS011;50167;47.958;21.780;2023-05-10T04:44:40;8.27;;;3.70;;
63975;SDS011;50167;47.958;21.780;2023-05-10T04:47:07;6.47;;;3.23;;
63975;SDS011;50167;47.958;21.780;2023-05-10T04:49:33;4.87;;;3.60;;
63975;SDS011;50167;47.958;21.780;2023-05-10T04:51:59;9.33;;;3.30;;
63975;SDS011;50167;47.958;21.780;2023-05-10T04:54:25;8.63;;;3.57;;
63975;SDS011;50167;47.958;21.780;2023-05-10T04:56:51;7.07;;;3.43;;
63975;SDS011;50167;47.958;21.780;2023-05-10T04:59:18;7.93;;;4.47;;
63975;SDS011;50167;47.958;21.780;2023-05-10T05:01:44;14.03;;;3.90;;
63975;SDS011;50167;47.958;21.780;2023-05-10T05:04:11;5.13;;;3.40;;
63975;SDS011;50167;47.958;21.780;2023-05-10T05:06:37;9.47;;;3.40;;
63975;SDS011;50167;47.958;21.780;2023-05-10T05:09:03;6.03;;;3.13;;
63975;SDS011;50167;47.958;21.780;2023-05-10T05:11:29;9.87;;;4.73;;
63975;SDS011;50167;47.958;21.780;2023-05-10T05:13:55;5.47;;;3.70;;
63975;SDS011;50167;47.958;21.780;2023-05-10T05:16:23;5.47;;;3.97;;
63975;SDS011;50167;47.958;21.780;2023-05-10T05:18:50;6.20;;;3.53;;
63975;SDS011;50167;47.958;21.780;2023-05-10T05:21:17;6.57;;;3.97;;
63975;SDS011;50167;47.958;21.780;2023-05-10T05:23:45;7.60;;;3.70;;
63975;SDS011;50167;47.958;21.780;2023-05-10T05:26:11;7.70;;;3.10;;
63975;SDS011;50167;47.958;21.780;2023-05-10T05:28:37;5.60;;;3.33;;
63975;SDS011;50167;47.958;21.780;2023-05-10T05:31:11;4.87;;;3.30;;
63975;SDS011;50167;47.958;21.780;2023-05-10T05:33:39;7.33;;;3.63;;
63975;SDS011;50167;47.958;21.780;2023-05-10T05:36:05;12.53;;;3.70;;
63975;SDS011;50167;47.958;21.780;2023-05-10T05:38:35;6.10;;;3.87;;
63975;SDS011;50167;47.958;21.780;2023-05-10T05:41:01;4.27;;;3.43;;
63975;SDS011;50167;47.958;21.780;2023-05-10T05:43:28;7.33;;;3.30;;
63975;SDS011;50167;47.958;21.780;2023-05-10T05:45:54;6.20;;;3.30;;
63975;SDS011;50167;47.958;21.780;2023-05-10T05:48:26;7.30;;;4.03;;
63975;SDS011;50167;47.958;21.780;2023-05-10T05:50:55;7.13;;;3.10;;
63975;SDS011;50167;47.958;21.780;2023-05-10T05:53:22;4.67;;;2.90;;
63975;SDS011;50167;47.958;21.780;2023-05-10T05:55:52;7.47;;;2.97;;
63975;SDS011;50167;47.958;21.780;2023-05-10T05:58:20;5.67;;;3.33;;
63975;SDS011;50167;47.958;21.780;2023-05-10T06:00:48;5.33;;;3.23;;
63975;SDS011;50167;47.958;21.780;2023-05-10T06:03:15;5.30;;;3.03;;
63975;SDS011;50167;47.958;21.780;2023-05-10T06:05:42;5.13;;;3.50;;
63975;SDS011;50167;47.958;21.780;2023-05-10T06:08:08;6.37;;;3.27;;
63975;SDS011;50167;47.958;21.780;2023-05-10T06:10:35;5.33;;;3.37;;
63975;SDS011;50167;47.958;21.780;2023-05-10T06:13:02;8.53;;;3.20;;
63975;SDS011;50167;47.958;21.780;2023-05-10T06:15:28;4.57;;;2.97;;
63975;SDS011;50167;47.958;21.780;2023-05-10T06:17:54;5.27;;;2.90;;
63975;SDS011;50167;47.958;21.780;2023-05-10T06:20:21;5.13;;;3.20;;
63975;SDS011;50167;47.958;21.780;2023-05-10T06:22:47;4.00;;;3.20;;
63975;SDS011;50167;47.958;21.780;2023-05-10T06:25:13;10.00;;;3.57;;
63975;SDS011;50167;47.958;21.780;2023-05-10T06:27:40;6.23;;;3.23;;
63975;SDS011;50167;47.958;21.780;2023-05-10T06:30:06;10.40;;;4.00;;
63975;SDS011;50167;47.958;21.780;2023-05-10T06:32:34;10.77;;;5.83;;
63975;SDS011;50167;47.958;21.780;2023-05-10T06:35:00;13.90;;;7.00;;
63975;SDS011;50167;47.958;21.780;2023-05-10T06:37:26;22.30;;;9.70;;
63975;SDS011;50167;47.958;21.780;2023-05-10T06:39:52;19.87;;;10.17;;
63975;SDS011;50167;47.958;21.780;2023-05-10T06:42:18;14.47;;;8.73;;
63975;SDS011;50167;47.958;21.780;2023-05-10T06:44:44;13.77;;;7.00;;
63975;SDS011;50167;47.958;21.780;2023-05-10T06:47:10;9.63;;;4.30;;
63975;SDS011;50167;47.958;21.780;2023-05-10T06:49:37;8.83;;;3.87;;
63975;SDS011;50167;47.958;21.780;2023-05-10T06:52:03;5.93;;;3.50;;
63975;SDS011;50167;47.958;21.780;2023-05-10T06:54:29;6.43;;;3.60;;
63975;SDS011;50167;47.958;21.780;2023-05-10T06:56:56;6.23;;;3.73;;
63975;SDS011;50167;47.958;21.780;2023-05-10T06:59:22;8.87;;;3.23;;
63975;SDS011;50167;47.958;21.780;2023-05-10T07:01:48;10.27;;;4.60;;
63975;SDS011;50167;47.958;21.780;2023-05-10T07:04:14;3.83;;;2.93;;
63975;SDS011;50167;47.958;21.780;2023-05-10T07:06:40;3.93;;;3.10;;
63975;SDS011;50167;47.958;21.780;2023-05-10T07:09:06;8.33;;;4.23;;
63975;SDS011;50167;47.958;21.780;2023-05-10T07:11:33;5.93;;;3.83;;
63975;SDS011;50167;47.958;21.780;2023-05-10T07:13:59;7.37;;;3.63;;
63975;SDS011;50167;47.958;21.780;2023-05-10T07:16:25;4.90;;;3.00;;
63975;SDS011;50167;47.958;21.780;2023-05-10T07:18:51;7.03;;;4.20;;
63975;SDS011;50167;47.958;21.780;2023-05-10T07:21:18;19.60;;;4.80;;
63975;SDS011;50167;47.958;21.780;2023-05-10T07:23:45;9.37;;;3.90;;
63975;SDS011;50167;47.958;21.780;2023-05-10T07:26:11;6.77;;;3.30;;
63975;SDS011;50167;47.958;21.780;2023-05-10T07:28:37;9.30;;;3.03;;
63975;SDS011;50167;47.958;21.780;2023-05-10T07:31:04;4.33;;;2.93;;
63975;SDS011;50167;47.958;21.780;2023-05-10T07:33:30;3.87;;;2.63;;
63975;SDS011;50167;47.958;21.780;2023-05-10T07:35:57;6.50;;;3.07;;
63975;SDS011;50167;47.958;21.780;2023-05-10T07:38:23;7.60;;;3.27;;
63975;SDS011;50167;47.958;21.780;2023-05-10T07:40:50;5.40;;;2.90;;
63975;SDS011;50167;47.958;21.780;2023-05-10T07:43:17;6.53;;;3.43;;
63975;SDS011;50167;47.958;21.780;2023-05-10T07:45:43;5.90;;;3.57;;
63975;SDS011;50167;47.958;21.780;2023-05-10T07:48:09;7.70;;;3.77;;
63975;SDS011;50167;47.958;21.780;2023-05-10T07:53:09;5.23;;;2.83;;
63975;SDS011;50167;47.958;21.780;2023-05-10T07:55:35;8.20;;;3.33;;
63975;SDS011;50167;47.958;21.780;2023-05-10T07:58:01;6.10;;;2.90;;
63975;SDS011;50167;47.958;21.780;2023-05-10T08:00:27;5.30;;;3.10;;
63975;SDS011;50167;47.958;21.780;2023-05-10T08:02:53;8.07;;;2.67;;
63975;SDS011;50167;47.958;21.780;2023-05-10T08:05:20;4.83;;;2.73;;
63975;SDS011;50167;47.958;21.780;2023-05-10T08:07:46;5.73;;;2.80;;
63975;SDS011;50167;47.958;21.780;2023-05-10T08:10:12;7.40;;;3.77;;
63975;SDS011;50167;47.958;21.780;2023-05-10T08:12:41;7.13;;;3.47;;
63975;SDS011;50167;47.958;21.780;2023-05-10T08:15:08;7.50;;;3.50;;
63975;SDS011;50167;47.958;21.780;2023-05-10T08:17:35;9.70;;;2.97;;
63975;SDS011;50167;47.958;21.780;2023-05-10T08:20:02;5.77;;;2.80;;
63975;SDS011;50167;47.958;21.780;2023-05-10T08:22:28;8.70;;;3.07;;
63975;SDS011;50167;47.958;21.780;2023-05-10T08:24:54;6.27;;;3.60;;
63975;SDS011;50167;47.958;21.780;2023-05-10T08:27:20;6.10;;;3.30;;
63975;SDS011;50167;47.958;21.780;2023-05-10T08:29:47;7.93;;;3.30;;
63975;SDS011;50167;47.958;21.780;2023-05-10T08:32:13;7.53;;;3.13;;
63975;SDS011;50167;47.958;21.780;2023-05-10T08:34:39;6.50;;;3.20;;
63975;SDS011;50167;47.958;21.780;2023-05-10T08:37:06;11.13;;;3.00;;
63975;SDS011;50167;47.958;21.780;2023-05-10T08:39:36;9.63;;;3.23;;
63975;SDS011;50167;47.958;21.780;2023-05-10T08:42:03;4.60;;;2.58;;
63975;SDS011;50167;47.958;21.780;2023-05-10T08:44:31;4.80;;;2.50;;
63975;SDS011;50167;47.958;21.780;2023-05-10T08:47:01;5.60;;;2.47;;
63975;SDS011;50167;47.958;21.780;2023-05-10T08:49:32;4.27;;;2.63;;
63975;SDS011;50167;47.958;21.780;2023-05-10T08:51:59;7.00;;;2.90;;
63975;SDS011;50167;47.958;21.780;2023-05-10T08:54:33;3.10;;;2.00;;
63975;SDS011;50167;47.958;21.780;2023-05-10T08:57:00;9.37;;;2.67;;
63975;SDS011;50167;47.958;21.780;2023-05-10T09:03:05;3.67;;;2.40;;
63975;SDS011;50167;47.958;21.780;2023-05-10T09:05:32;11.33;;;3.00;;
63975;SDS011;50167;47.958;21.780;2023-05-10T09:07:58;7.77;;;2.50;;
63975;SDS011;50167;47.958;21.780;2023-05-10T09:10:26;3.10;;;2.47;;
63975;SDS011;50167;47.958;21.780;2023-05-10T09:12:53;2.80;;;1.97;;
63975;SDS011;50167;47.958;21.780;2023-05-10T09:15:22;3.53;;;2.20;;
63975;SDS011;50167;47.958;21.780;2023-05-10T09:17:49;3.70;;;2.43;;
63975;SDS011;50167;47.958;21.780;2023-05-10T09:20:15;7.13;;;2.30;;
63975;SDS011;50167;47.958;21.780;2023-05-10T09:22:43;2.60;;;2.00;;
63975;SDS011;50167;47.958;21.780;2023-05-10T09:25:15;5.80;;;2.10;;
63975;SDS011;50167;47.958;21.780;2023-05-10T09:27:40;3.77;;;2.50;;
63975;SDS011;50167;47.958;21.780;2023-05-10T09:30:10;3.20;;;2.20;;
63975;SDS011;50167;47.958;21.780;2023-05-10T09:32:51;4.00;;;2.27;;
63975;SDS011;50167;47.958;21.780;2023-05-10T09:35:18;3.20;;;1.93;;
63975;SDS011;50167;47.958;21.780;2023-05-10T09:37:47;2.67;;;2.30;;
63975;SDS011;50167;47.958;21.780;2023-05-10T09:40:17;4.47;;;1.95;;
63975;SDS011;50167;47.958;21.780;2023-05-10T09:45:28;2.30;;;1.50;;
63975;SDS011;50167;47.958;21.780;2023-05-10T09:47:53;6.03;;;2.12;;
63975;SDS011;50167;47.958;21.780;2023-05-10T09:50:20;12.70;;;2.37;;
63975;SDS011;50167;47.958;21.780;2023-05-10T09:55:24;11.87;;;2.30;;
63975;SDS011;50167;47.958;21.780;2023-05-10T09:58:03;9.07;;;1.80;;
63975;SDS011;50167;47.958;21.780;2023-05-10T10:00:37;14.30;;;2.00;;
63975;SDS011;50167;47.958;21.780;2023-05-10T10:05:30;6.70;;;2.20;;
63975;SDS011;50167;47.958;21.780;2023-05-10T10:07:57;4.57;;;1.60;;
63975;SDS011;50167;47.958;21.780;2023-05-10T10:10:24;3.97;;;1.83;;
63975;SDS011;50167;47.958;21.780;2023-05-10T10:12:54;4.67;;;1.80;;
63975;SDS011;50167;47.958;21.780;2023-05-10T10:15:22;8.30;;;1.87;;
63975;SDS011;50167;47.958;21.780;2023-05-10T10:17:49;4.92;;;1.50;;
63975;SDS011;50167;47.958;21.780;2023-05-10T10:20:18;2.80;;;1.90;;
63975;SDS011;50167;47.958;21.780;2023-05-10T10:22:46;2.60;;;1.87;;
63975;SDS011;50167;47.958;21.780;2023-05-10T10:25:13;2.27;;;1.95;;
63975;SDS011;50167;47.958;21.780;2023-05-10T10:27:47;2.95;;;1.82;;
63975;SDS011;50167;47.958;21.780;2023-05-10T10:36:19;2.15;;;1.90;;
63975;SDS011;50167;47.958;21.780;2023-05-10T10:41:30;3.25;;;1.70;;
63975;SDS011;50167;47.958;21.780;2023-05-10T10:49:51;2.80;;;2.15;;
63975;SDS011;50167;47.958;21.780;2023-05-10T10:52:36;3.70;;;1.95;;
63975;SDS011;50167;47.958;21.780;2023-05-10T11:00:18;3.30;;;1.90;;
63975;SDS011;50167;47.958;21.780;2023-05-10T11:03:05;5.62;;;1.98;;
63975;SDS011;50167;47.958;21.780;2023-05-10T11:05:39;7.72;;;1.60;;
63975;SDS011;50167;47.958;21.780;2023-05-10T11:08:17;2.55;;;2.00;;
63975;SDS011;50167;47.958;21.780;2023-05-10T11:21:31;6.22;;;1.70;;
63975;SDS011;50167;47.958;21.780;2023-05-10T11:24:02;2.67;;;1.85;;
63975;SDS011;50167;47.958;21.780;2023-05-10T11:26:32;3.30;;;1.52;;
63975;SDS011;50167;47.958;21.780;2023-05-10T11:29:00;2.27;;;1.75;;
63975;SDS011;50167;47.958;21.780;2023-05-10T11:31:28;2.42;;;1.72;;
63975;SDS011;50167;47.958;21.780;2023-05-10T11:33:55;1.95;;;1.57;;
63975;SDS011;50167;47.958;21.780;2023-05-10T11:36:25;7.75;;;4.08;;
63975;SDS011;50167;47.958;21.780;2023-05-10T11:38:55;11.03;;;3.37;;
63975;SDS011;50167;47.958;21.780;2023-05-10T11:41:22;16.73;;;7.85;;
63975;SDS011;50167;47.958;21.780;2023-05-10T11:43:50;5.62;;;1.85;;
63975;SDS011;50167;47.958;21.780;2023-05-10T11:46:20;8.20;;;4.60;;
63975;SDS011;50167;47.958;21.780;2023-05-10T11:48:49;17.60;;;8.28;;
63975;SDS011;50167;47.958;21.780;2023-05-10T11:51:21;50.52;;;24.37;;
63975;SDS011;50167;47.958;21.780;2023-05-10T11:53:49;28.20;;;15.48;;
63975;SDS011;50167;47.958;21.780;2023-05-10T11:56:21;5.33;;;3.30;;
63975;SDS011;50167;47.958;21.780;2023-05-10T11:58:52;3.67;;;2.00;;
63975;SDS011;50167;47.958;21.780;2023-05-10T12:01:21;7.15;;;2.45;;
63975;SDS011;50167;47.958;21.780;2023-05-10T12:03:48;4.45;;;1.87;;
63975;SDS011;50167;47.958;21.780;2023-05-10T12:06:17;4.50;;;1.50;;
63975;SDS011;50167;47.958;21.780;2023-05-10T12:08:45;3.52;;;2.02;;
63975;SDS011;50167;47.958;21.780;2023-05-10T12:11:15;2.33;;;1.72;;
63975;SDS011;50167;47.958;21.780;2023-05-10T12:13:43;6.00;;;1.60;;
63975;SDS011;50167;47.958;21.780;2023-05-10T12:16:22;7.15;;;1.65;;
63975;SDS011;50167;47.958;21.780;2023-05-10T12:18:49;4.42;;;2.40;;
63975;SDS011;50167;47.958;21.780;2023-05-10T12:21:20;1.50;;;1.40;;
63975;SDS011;50167;47.958;21.780;2023-05-10T12:23:48;4.60;;;1.90;;
63975;SDS011;50167;47.958;21.780;2023-05-10T12:26:24;6.30;;;2.08;;
63975;SDS011;50167;47.958;21.780;2023-05-10T12:28:54;1.60;;;1.22;;
63975;SDS011;50167;47.958;21.780;2023-05-10T12:31:22;5.15;;;1.60;;
63975;SDS011;50167;47.958;21.780;2023-05-10T12:33:48;2.87;;;2.30;;
63975;SDS011;50167;47.958;21.780;2023-05-10T12:36:17;3.22;;;2.00;;
63975;SDS011;50167;47.958;21.780;2023-05-10T12:38:48;12.25;;;2.47;;
63975;SDS011;50167;47.958;21.780;2023-05-10T12:41:15;3.55;;;1.40;;
63975;SDS011;50167;47.958;21.780;2023-05-10T12:43:43;6.33;;;2.05;;
63975;SDS011;50167;47.958;21.780;2023-05-10T12:46:11;3.05;;;1.60;;
63975;SDS011;50167;47.958;21.780;2023-05-10T12:48:41;3.62;;;1.55;;
63975;SDS011;50167;47.958;21.780;2023-05-10T12:51:08;4.80;;;1.35;;
63975;SDS011;50167;47.958;21.780;2023-05-10T12:53:37;4.37;;;1.45;;
63975;SDS011;50167;47.958;21.780;2023-05-10T12:56:05;1.90;;;1.25;;
63975;SDS011;50167;47.958;21.780;2023-05-10T12:58:34;3.95;;;1.77;;
63975;SDS011;50167;47.958;21.780;2023-05-10T13:01:00;1.95;;;1.52;;
63975;SDS011;50167;47.958;21.780;2023-05-10T13:03:27;2.60;;;1.50;;
63975;SDS011;50167;47.958;21.780;2023-05-10T13:05:53;7.75;;;2.30;;
63975;SDS011;50167;47.958;21.780;2023-05-10T13:08:19;2.45;;;1.75;;
63975;SDS011;50167;47.958;21.780;2023-05-10T13:10:45;2.67;;;1.25;;
63975;SDS011;50167;47.958;21.780;2023-05-10T13:13:12;4.45;;;1.10;;
63975;SDS011;50167;47.958;21.780;2023-05-10T13:15:38;10.30;;;1.75;;
63975;SDS011;50167;47.958;21.780;2023-05-10T13:18:04;3.08;;;1.20;;
63975;SDS011;50167;47.958;21.780;2023-05-10T13:20:30;3.35;;;1.55;;
63975;SDS011;50167;47.958;21.780;2023-05-10T13:22:56;4.35;;;1.00;;
63975;SDS011;50167;47.958;21.780;2023-05-10T13:25:22;1.82;;;1.10;;
63975;SDS011;50167;47.958;21.780;2023-05-10T13:27:49;4.22;;;1.40;;
63975;SDS011;50167;47.958;21.780;2023-05-10T13:30:15;2.87;;;1.45;;
63975;SDS011;50167;47.958;21.780;2023-05-10T13:32:41;2.58;;;1.75;;
63975;SDS011;50167;47.958;21.780;2023-05-10T13:35:07;5.87;;;1.85;;
63975;SDS011;50167;47.958;21.780;2023-05-10T13:37:34;2.83;;;1.60;;
63975;SDS011;50167;47.958;21.780;2023-05-10T13:40:02;9.05;;;3.12;;
63975;SDS011;50167;47.958;21.780;2023-05-10T13:42:29;5.33;;;2.02;;
63975;SDS011;50167;47.958;21.780;2023-05-10T13:44:59;2.90;;;2.20;;
63975;SDS011;50167;47.958;21.780;2023-05-10T13:47:29;2.10;;;1.70;;
63975;SDS011;50167;47.958;21.780;2023-05-10T13:49:56;3.62;;;1.80;;
63975;SDS011;50167;47.958;21.780;2023-05-10T13:52:23;1.70;;;1.60;;
63975;SDS011;50167;47.958;21.780;2023-05-10T13:54:49;3.22;;;1.55;;
63975;SDS011;50167;47.958;21.780;2023-05-10T13:57:17;6.72;;;1.67;;
63975;SDS011;50167;47.958;21.780;2023-05-10T13:59:44;10.60;;;1.98;;
63975;SDS011;50167;47.958;21.780;2023-05-10T14:02:10;7.25;;;1.50;;
63975;SDS011;50167;47.958;21.780;2023-05-10T14:04:38;2.55;;;1.55;;
63975;SDS011;50167;47.958;21.780;2023-05-10T14:07:04;2.27;;;1.42;;
63975;SDS011;50167;47.958;21.780;2023-05-10T14:09:30;2.12;;;1.40;;
63975;SDS011;50167;47.958;21.780;2023-05-10T14:11:57;3.02;;;2.08;;
63975;SDS011;50167;47.958;21.780;2023-05-10T14:14:24;2.90;;;1.55;;
63975;SDS011;50167;47.958;21.780;2023-05-10T14:16:50;1.47;;;1.32;;
63975;SDS011;50167;47.958;21.780;2023-05-10T14:19:16;2.90;;;1.72;;
63975;SDS011;50167;47.958;21.780;2023-05-10T14:21:43;3.65;;;1.32;;
63975;SDS011;50167;47.958;21.780;2023-05-10T14:24:09;1.40;;;1.30;;
63975;SDS011;50167;47.958;21.780;2023-05-10T14:26:35;4.42;;;1.20;;
63975;SDS011;50167;47.958;21.780;2023-05-10T14:29:02;5.10;;;1.35;;
63975;SDS011;50167;47.958;21.780;2023-05-10T14:31:28;1.60;;;1.05;;
63975;SDS011;50167;47.958;21.780;2023-05-10T14:33:55;3.52;;;1.62;;
63975;SDS011;50167;47.958;21.780;2023-05-10T14:36:23;8.70;;;1.25;;
63975;SDS011;50167;47.958;21.780;2023-05-10T14:38:50;4.20;;;1.20;;
63975;SDS011;50167;47.958;21.780;2023-05-10T14:41:17;1.55;;;1.30;;
63975;SDS011;50167;47.958;21.780;2023-05-10T14:43:43;6.20;;;1.55;;
63975;SDS011;50167;47.958;21.780;2023-05-10T14:46:09;3.65;;;1.52;;
63975;SDS011;50167;47.958;21.780;2023-05-10T14:48:36;4.55;;;1.35;;
63975;SDS011;50167;47.958;21.780;2023-05-10T14:51:02;3.58;;;1.35;;
63975;SDS011;50167;47.958;21.780;2023-05-10T14:53:29;5.75;;;1.62;;
63975;SDS011;50167;47.958;21.780;2023-05-10T14:55:55;3.33;;;1.90;;
63975;SDS011;50167;47.958;21.780;2023-05-10T14:58:21;2.70;;;1.15;;
63975;SDS011;50167;47.958;21.780;2023-05-10T15:00:48;2.30;;;1.30;;
63975;SDS011;50167;47.958;21.780;2023-05-10T15:03:14;1.35;;;1.05;;
63975;SDS011;50167;47.958;21.780;2023-05-10T15:05:41;3.77;;;1.02;;
63975;SDS011;50167;47.958;21.780;2023-05-10T15:08:07;8.08;;;1.82;;
63975;SDS011;50167;47.958;21.780;2023-05-10T15:10:34;3.00;;;1.72;;
63975;SDS011;50167;47.958;21.780;2023-05-10T15:13:03;1.62;;;0.98;;
63975;SDS011;50167;47.958;21.780;2023-05-10T15:17:57;3.70;;;1.10;;
63975;SDS011;50167;47.958;21.780;2023-05-10T15:20:23;1.55;;;1.45;;
63975;SDS011;50167;47.958;21.780;2023-05-10T15:22:49;7.05;;;3.40;;
63975;SDS011;50167;47.958;21.780;2023-05-10T15:25:16;2.52;;;1.50;;
63975;SDS011;50167;47.958;21.780;2023-05-10T15:27:42;3.50;;;1.22;;
63975;SDS011;50167;47.958;21.780;2023-05-10T15:30:11;1.82;;;1.40;;
63975;SDS011;50167;47.958;21.780;2023-05-10T15:32:38;1.65;;;1.27;;
63975;SDS011;50167;47.958;21.780;2023-05-10T15:35:05;2.33;;;1.62;;
63975;SDS011;50167;47.958;21.780;2023-05-10T15:37:33;4.05;;;2.00;;